Terminal Aerodrome Forecast
Issued by NWS

Home | Current Version | Previous Version | Text Only | Print | Product List | Glossary On
Versions: 1 2 3 4 5 6 7 8 9 10 11 12 13 14 15 16 17 18 19 20 21 22 23 24 25 26 27 28 29 30 31 32 33 34
000
FTUS41 KBOX 260909 AAA
TAFACK
TAF AMD
KACK 260909Z 2609/2706 02012KT P6SM BKN100
     FM261300 06013KT P6SM OVC025
     FM261800 06020G30KT 5SM -SN OVC015
     FM270000 05028G42KT 1SM -SN BLSN OVC010
     FM270300 04033G53KT 1/2SM -SN BLSN OVC010=

USA.gov is the U.S. government's official web portal to all federal, state and local government web resources and services.